sensor_id;sensor_type;location;lat;lon;timestamp;temperature;humidity
64650;HTU21D;51061;45.258;38.112;2022-10-10T00:00:45;16.41;82.08
64650;HTU21D;51061;45.258;38.112;2022-10-10T00:03:12;16.43;82.07
64650;HTU21D;51061;45.258;38.112;2022-10-10T00:05:38;16.41;82.06
64650;HTU21D;51061;45.258;38.112;2022-10-10T00:08:06;16.42;82.08
64650;HTU21D;51061;45.258;38.112;2022-10-10T00:10:32;16.43;82.07
64650;HTU21D;51061;45.258;38.112;2022-10-10T00:12:59;16.42;82.08
64650;HTU21D;51061;45.258;38.112;2022-10-10T00:15:25;16.40;82.11
64650;HTU21D;51061;45.258;38.112;2022-10-10T00:17:51;16.26;82.13
64650;HTU21D;51061;45.258;38.112;2022-10-10T00:20:18;16.28;82.26
64650;HTU21D;51061;45.258;38.112;2022-10-10T00:22:46;16.24;82.36
64650;HTU21D;51061;45.258;38.112;2022-10-10T00:25:12;16.20;82.50
64650;HTU21D;51061;45.258;38.112;2022-10-10T00:27:39;16.18;82.49
64650;HTU21D;51061;45.258;38.112;2022-10-10T00:30:06;16.19;82.36
64650;HTU21D;51061;45.258;38.112;2022-10-10T00:32:33;16.20;82.32
64650;HTU21D;51061;45.258;38.112;2022-10-10T00:34:59;16.19;82.33
64650;HTU21D;51061;45.258;38.112;2022-10-10T00:37:26;16.16;82.33
64650;HTU21D;51061;45.258;38.112;2022-10-10T00:39:52;16.13;82.39
64650;HTU21D;51061;45.258;38.112;2022-10-10T00:42:18;16.11;82.38
64650;HTU21D;51061;45.258;38.112;2022-10-10T00:44:46;16.07;82.36
64650;HTU21D;51061;45.258;38.112;2022-10-10T00:47:32;16.03;82.38
64650;HTU21D;51061;45.258;38.112;2022-10-10T00:49:58;16.02;82.27
64650;HTU21D;51061;45.258;38.112;2022-10-10T00:52:24;16.00;82.20
64650;HTU21D;51061;45.258;38.112;2022-10-10T00:54:50;15.97;82.28
64650;HTU21D;51061;45.258;38.112;2022-10-10T00:57:16;15.90;82.33
64650;HTU21D;51061;45.258;38.112;2022-10-10T00:59:42;15.70;82.55
64650;HTU21D;51061;45.258;38.112;2022-10-10T01:02:10;15.60;82.59
64650;HTU21D;51061;45.258;38.112;2022-10-10T01:04:41;15.61;82.52
64650;HTU21D;51061;45.258;38.112;2022-10-10T01:07:11;15.59;82.61
64650;HTU21D;51061;45.258;38.112;2022-10-10T01:09:40;15.60;82.65
64650;HTU21D;51061;45.258;38.112;2022-10-10T01:12:23;15.60;82.52
64650;HTU21D;51061;45.258;38.112;2022-10-10T01:23:34;15.62;82.13
64650;HTU21D;51061;45.258;38.112;2022-10-10T01:26:42;15.63;81.96
64650;HTU21D;51061;45.258;38.112;2022-10-10T01:29:30;15.65;82.00
64650;HTU21D;51061;45.258;38.112;2022-10-10T01:32:50;15.61;82.01
64650;HTU21D;51061;45.258;38.112;2022-10-10T01:35:02;15.57;82.26
64650;HTU21D;51061;45.258;38.112;2022-10-10T01:38:04;15.56;82.23
64650;HTU21D;51061;45.258;38.112;2022-10-10T01:43:01;15.53;82.46
64650;HTU21D;51061;45.258;38.112;2022-10-10T01:45:28;15.53;82.55
64650;HTU21D;51061;45.258;38.112;2022-10-10T01:48:00;15.53;82.51
64650;HTU21D;51061;45.258;38.112;2022-10-10T01:50:27;15.54;82.53
64650;HTU21D;51061;45.258;38.112;2022-10-10T02:03:15;15.52;82.66
64650;HTU21D;51061;45.258;38.112;2022-10-10T02:05:53;15.48;82.68
64650;HTU21D;51061;45.258;38.112;2022-10-10T02:08:39;15.43;82.69
64650;HTU21D;51061;45.258;38.112;2022-10-10T02:11:10;15.39;82.85
64650;HTU21D;51061;45.258;38.112;2022-10-10T02:13:45;15.38;82.91
64650;HTU21D;51061;45.258;38.112;2022-10-10T02:16:32;15.32;82.94
64650;HTU21D;51061;45.258;38.112;2022-10-10T02:18:58;15.33;83.13
64650;HTU21D;51061;45.258;38.112;2022-10-10T02:21:25;15.33;83.20
64650;HTU21D;51061;45.258;38.112;2022-10-10T02:23:53;15.34;83.24
64650;HTU21D;51061;45.258;38.112;2022-10-10T02:26:22;15.34;83.26
64650;HTU21D;51061;45.258;38.112;2022-10-10T02:28:51;15.36;83.36
64650;HTU21D;51061;45.258;38.112;2022-10-10T02:31:26;15.32;83.32
64650;HTU21D;51061;45.258;38.112;2022-10-10T02:33:58;15.28;83.55
64650;HTU21D;51061;45.258;38.112;2022-10-10T02:36:27;15.27;83.71
64650;HTU21D;51061;45.258;38.112;2022-10-10T02:38:58;15.24;83.87
64650;HTU21D;51061;45.258;38.112;2022-10-10T02:41:24;15.22;84.06
64650;HTU21D;51061;45.258;38.112;2022-10-10T02:43:53;15.21;84.16
64650;HTU21D;51061;45.258;38.112;2022-10-10T02:46:19;15.18;84.27
64650;HTU21D;51061;45.258;38.112;2022-10-10T02:48:45;15.17;84.36
64650;HTU21D;51061;45.258;38.112;2022-10-10T02:51:11;15.03;84.29
64650;HTU21D;51061;45.258;38.112;2022-10-10T02:53:38;15.08;84.43
64650;HTU21D;51061;45.258;38.112;2022-10-10T02:56:05;15.10;84.72
64650;HTU21D;51061;45.258;38.112;2022-10-10T02:58:31;14.96;84.61
64650;HTU21D;51061;45.258;38.112;2022-10-10T03:00:57;15.01;84.81
64650;HTU21D;51061;45.258;38.112;2022-10-10T03:03:23;14.92;84.78
64650;HTU21D;51061;45.258;38.112;2022-10-10T03:05:50;14.97;84.84
64650;HTU21D;51061;45.258;38.112;2022-10-10T03:08:16;15.01;85.01
64650;HTU21D;51061;45.258;38.112;2022-10-10T03:10:52;14.94;84.92
64650;HTU21D;51061;45.258;38.112;2022-10-10T03:13:18;14.98;85.05
64650;HTU21D;51061;45.258;38.112;2022-10-10T03:15:44;15.00;85.14
64650;HTU21D;51061;45.258;38.112;2022-10-10T03:18:10;15.03;85.24
64650;HTU21D;51061;45.258;38.112;2022-10-10T03:20:36;15.06;85.28
64650;HTU21D;51061;45.258;38.112;2022-10-10T03:23:02;15.08;85.28
64650;HTU21D;51061;45.258;38.112;2022-10-10T03:25:28;15.11;85.29
64650;HTU21D;51061;45.258;38.112;2022-10-10T03:27:54;15.13;85.31
64650;HTU21D;51061;45.258;38.112;2022-10-10T03:30:20;15.17;85.30
64650;HTU21D;51061;45.258;38.112;2022-10-10T03:32:46;15.17;85.26
64650;HTU21D;51061;45.258;38.112;2022-10-10T03:35:12;15.21;85.32
64650;HTU21D;51061;45.258;38.112;2022-10-10T03:37:38;15.23;85.35
64650;HTU21D;51061;45.258;38.112;2022-10-10T03:41:27;15.26;85.47
64650;HTU21D;51061;45.258;38.112;2022-10-10T03:43:54;15.27;85.51
64650;HTU21D;51061;45.258;38.112;2022-10-10T03:46:20;15.30;85.51
64650;HTU21D;51061;45.258;38.112;2022-10-10T03:48:46;15.21;85.41
64650;HTU21D;51061;45.258;38.112;2022-10-10T03:51:12;15.27;85.35
64650;HTU21D;51061;45.258;38.112;2022-10-10T03:53:38;15.31;85.51
64650;HTU21D;51061;45.258;38.112;2022-10-10T03:56:05;15.34;85.53
64650;HTU21D;51061;45.258;38.112;2022-10-10T03:58:31;15.41;85.54
64650;HTU21D;51061;45.258;38.112;2022-10-10T04:01:01;15.32;85.37
64650;HTU21D;51061;45.258;38.112;2022-10-10T04:03:27;15.40;85.38
64650;HTU21D;51061;45.258;38.112;2022-10-10T04:05:53;15.44;85.45
64650;HTU21D;51061;45.258;38.112;2022-10-10T04:08:20;15.47;85.51
64650;HTU21D;51061;45.258;38.112;2022-10-10T04:10:51;15.53;85.42
64650;HTU21D;51061;45.258;38.112;2022-10-10T04:13:18;15.58;85.44
64650;HTU21D;51061;45.258;38.112;2022-10-10T04:15:44;15.62;85.42
64650;HTU21D;51061;45.258;38.112;2022-10-10T04:18:10;15.56;85.26
64650;HTU21D;51061;45.258;38.112;2022-10-10T04:20:36;15.63;85.30
64650;HTU21D;51061;45.258;38.112;2022-10-10T04:23:02;15.68;85.39
64650;HTU21D;51061;45.258;38.112;2022-10-10T04:25:28;15.61;85.22
64650;HTU21D;51061;45.258;38.112;2022-10-10T04:27:54;15.72;85.22
64650;HTU21D;51061;45.258;38.112;2022-10-10T04:30:20;15.77;85.29
64650;HTU21D;51061;45.258;38.112;2022-10-10T04:32:46;15.83;85.32
64650;HTU21D;51061;45.258;38.112;2022-10-10T04:35:12;15.86;85.33
64650;HTU21D;51061;45.258;38.112;2022-10-10T04:37:38;15.89;85.32
64650;HTU21D;51061;45.258;38.112;2022-10-10T04:40:04;15.83;85.18
64650;HTU21D;51061;45.258;38.112;2022-10-10T04:42:30;15.91;85.19
64650;HTU21D;51061;45.258;38.112;2022-10-10T04:44:56;15.97;85.36
64650;HTU21D;51061;45.258;38.112;2022-10-10T04:47:22;15.91;85.20
64650;HTU21D;51061;45.258;38.112;2022-10-10T04:49:48;15.99;85.21
64650;HTU21D;51061;45.258;38.112;2022-10-10T04:52:14;16.03;85.33
64650;HTU21D;51061;45.258;38.112;2022-10-10T04:54:41;15.99;85.16
64650;HTU21D;51061;45.258;38.112;2022-10-10T04:57:07;16.06;85.19
64650;HTU21D;51061;45.258;38.112;2022-10-10T04:59:33;16.10;85.26
64650;HTU21D;51061;45.258;38.112;2022-10-10T05:01:59;16.16;85.22
64650;HTU21D;51061;45.258;38.112;2022-10-10T05:04:25;16.19;85.16
64650;HTU21D;51061;45.258;38.112;2022-10-10T05:06:51;16.26;85.15
64650;HTU21D;51061;45.258;38.112;2022-10-10T05:09:17;16.31;85.12
64650;HTU21D;51061;45.258;38.112;2022-10-10T05:11:43;16.35;85.10
64650;HTU21D;51061;45.258;38.112;2022-10-10T05:14:09;16.40;85.09
64650;HTU21D;51061;45.258;38.112;2022-10-10T05:16:35;16.44;85.11
64650;HTU21D;51061;45.258;38.112;2022-10-10T05:19:01;16.48;85.07
64650;HTU21D;51061;45.258;38.112;2022-10-10T05:21:28;16.51;85.07
64650;HTU21D;51061;45.258;38.112;2022-10-10T05:23:53;16.52;85.04
64650;HTU21D;51061;45.258;38.112;2022-10-10T05:26:19;16.45;84.91
64650;HTU21D;51061;45.258;38.112;2022-10-10T05:28:46;16.47;84.97
64650;HTU21D;51061;45.258;38.112;2022-10-10T05:31:12;16.49;85.05
64650;HTU21D;51061;45.258;38.112;2022-10-10T05:33:39;16.47;85.13
64650;HTU21D;51061;45.258;38.112;2022-10-10T05:36:06;16.39;85.12
64650;HTU21D;51061;45.258;38.112;2022-10-10T05:38:32;16.46;85.05
64650;HTU21D;51061;45.258;38.112;2022-10-10T05:40:59;16.47;85.15
64650;HTU21D;51061;45.258;38.112;2022-10-10T05:43:25;16.50;85.26
64650;HTU21D;51061;45.258;38.112;2022-10-10T05:45:51;16.52;85.28
64650;HTU21D;51061;45.258;38.112;2022-10-10T05:48:17;16.44;85.23
64650;HTU21D;51061;45.258;38.112;2022-10-10T05:50:49;16.52;85.12
64650;HTU21D;51061;45.258;38.112;2022-10-10T05:53:15;16.57;85.26
64650;HTU21D;51061;45.258;38.112;2022-10-10T05:55:42;16.59;85.36
64650;HTU21D;51061;45.258;38.112;2022-10-10T05:58:10;16.62;85.39
64650;HTU21D;51061;45.258;38.112;2022-10-10T06:00:39;16.63;85.39
64650;HTU21D;51061;45.258;38.112;2022-10-10T06:03:05;16.64;85.40
64650;HTU21D;51061;45.258;38.112;2022-10-10T06:05:32;16.64;85.43
64650;HTU21D;51061;45.258;38.112;2022-10-10T06:07:58;16.65;85.44
64650;HTU21D;51061;45.258;38.112;2022-10-10T06:10:24;16.67;85.44
64650;HTU21D;51061;45.258;38.112;2022-10-10T06:12:50;16.67;85.42
64650;HTU21D;51061;45.258;38.112;2022-10-10T06:15:16;16.69;85.38
64650;HTU21D;51061;45.258;38.112;2022-10-10T06:17:42;16.69;85.41
64650;HTU21D;51061;45.258;38.112;2022-10-10T06:20:08;16.58;85.29
64650;HTU21D;51061;45.258;38.112;2022-10-10T06:22:35;16.64;85.42
64650;HTU21D;51061;45.258;38.112;2022-10-10T06:25:01;16.66;85.54
64650;HTU21D;51061;45.258;38.112;2022-10-10T06:27:27;16.67;85.54
64650;HTU21D;51061;45.258;38.112;2022-10-10T06:29:53;16.70;85.61
64650;HTU21D;51061;45.258;38.112;2022-10-10T06:32:19;16.74;85.56
64650;HTU21D;51061;45.258;38.112;2022-10-10T06:34:45;16.77;85.52
64650;HTU21D;51061;45.258;38.112;2022-10-10T06:37:11;16.79;85.47
64650;HTU21D;51061;45.258;38.112;2022-10-10T06:39:37;16.82;85.43
64650;HTU21D;51061;45.258;38.112;2022-10-10T06:42:03;16.74;85.37
64650;HTU21D;51061;45.258;38.112;2022-10-10T06:44:29;16.81;85.35
64650;HTU21D;51061;45.258;38.112;2022-10-10T06:46:55;16.74;85.28
64650;HTU21D;51061;45.258;38.112;2022-10-10T06:49:22;16.78;85.32
64650;HTU21D;51061;45.258;38.112;2022-10-10T06:51:48;16.80;85.36
64650;HTU21D;51061;45.258;38.112;2022-10-10T06:54:14;16.80;85.47
64650;HTU21D;51061;45.258;38.112;2022-10-10T06:56:40;16.85;85.38
64650;HTU21D;51061;45.258;38.112;2022-10-10T06:59:06;16.87;85.34
64650;HTU21D;51061;45.258;38.112;2022-10-10T07:01:32;16.81;85.28
64650;HTU21D;51061;45.258;38.112;2022-10-10T07:03:58;16.87;85.21
64650;HTU21D;51061;45.258;38.112;2022-10-10T07:06:24;16.80;85.23
64650;HTU21D;51061;45.258;38.112;2022-10-10T07:08:50;16.89;85.21
64650;HTU21D;51061;45.258;38.112;2022-10-10T07:11:16;16.90;85.24
64650;HTU21D;51061;45.258;38.112;2022-10-10T07:13:42;16.79;85.27
64650;HTU21D;51061;45.258;38.112;2022-10-10T07:16:09;16.88;85.13
64650;HTU21D;51061;45.258;38.112;2022-10-10T07:18:36;16.89;85.11
64650;HTU21D;51061;45.258;38.112;2022-10-10T07:21:03;16.92;85.14
64650;HTU21D;51061;45.258;38.112;2022-10-10T07:23:29;16.94;85.11
64650;HTU21D;51061;45.258;38.112;2022-10-10T07:25:59;17.00;84.97
64650;HTU21D;51061;45.258;38.112;2022-10-10T07:28:26;17.06;84.96
64650;HTU21D;51061;45.258;38.112;2022-10-10T07:31:01;17.20;84.64
64650;HTU21D;51061;45.258;38.112;2022-10-10T07:33:33;17.33;84.39
64650;HTU21D;51061;45.258;38.112;2022-10-10T07:35:59;17.45;84.17
64650;HTU21D;51061;45.258;38.112;2022-10-10T07:38:25;17.45;84.30
64650;HTU21D;51061;45.258;38.112;2022-10-10T07:40:51;17.53;83.98
64650;HTU21D;51061;45.258;38.112;2022-10-10T07:43:17;17.58;84.07
64650;HTU21D;51061;45.258;38.112;2022-10-10T07:45:43;17.73;83.74
64650;HTU21D;51061;45.258;38.112;2022-10-10T07:48:10;17.81;83.61
64650;HTU21D;51061;45.258;38.112;2022-10-10T07:50:40;17.96;83.27
64650;HTU21D;51061;45.258;38.112;2022-10-10T07:53:10;17.97;83.17
64650;HTU21D;51061;45.258;38.112;2022-10-10T07:55:41;17.94;83.30
64650;HTU21D;51061;45.258;38.112;2022-10-10T07:58:09;17.93;83.34
64650;HTU21D;51061;45.258;38.112;2022-10-10T08:00:35;17.96;83.28
64650;HTU21D;51061;45.258;38.112;2022-10-10T08:03:02;17.99;83.28
64650;HTU21D;51061;45.258;38.112;2022-10-10T08:05:28;17.91;83.58
64650;HTU21D;51061;45.258;38.112;2022-10-10T08:07:54;18.03;83.22
64650;HTU21D;51061;45.258;38.112;2022-10-10T08:10:20;17.95;83.46
64650;HTU21D;51061;45.258;38.112;2022-10-10T08:12:46;18.07;83.28
64650;HTU21D;51061;45.258;38.112;2022-10-10T08:15:12;18.24;82.97
64650;HTU21D;51061;45.258;38.112;2022-10-10T08:17:38;18.39;82.92
64650;HTU21D;51061;45.258;38.112;2022-10-10T08:20:04;18.62;82.33
64650;HTU21D;51061;45.258;38.112;2022-10-10T08:22:30;18.87;81.89
64650;HTU21D;51061;45.258;38.112;2022-10-10T08:24:56;19.06;81.73
64650;HTU21D;51061;45.258;38.112;2022-10-10T08:27:22;19.30;81.03
64650;HTU21D;51061;45.258;38.112;2022-10-10T08:29:48;19.48;80.84
64650;HTU21D;51061;45.258;38.112;2022-10-10T08:32:14;19.51;80.78
64650;HTU21D;51061;45.258;38.112;2022-10-10T08:34:40;19.54;80.80
64650;HTU21D;51061;45.258;38.112;2022-10-10T08:37:07;19.60;80.58
64650;HTU21D;51061;45.258;38.112;2022-10-10T08:39:32;19.70;81.05
64650;HTU21D;51061;45.258;38.112;2022-10-10T08:42:00;20.07;79.59
64650;HTU21D;51061;45.258;38.112;2022-10-10T08:55:07;23.84;69.67
64650;HTU21D;51061;45.258;38.112;2022-10-10T08:57:47;23.80;70.08
64650;HTU21D;51061;45.258;38.112;2022-10-10T09:00:20;24.63;68.28
64650;HTU21D;51061;45.258;38.112;2022-10-10T09:02:54;24.24;67.41
64650;HTU21D;51061;45.258;38.112;2022-10-10T09:10:39;26.19;62.05
64650;HTU21D;51061;45.258;38.112;2022-10-10T09:16:47;26.05;63.47
64650;HTU21D;51061;45.258;38.112;2022-10-10T09:21:32;28.15;57.37
64650;HTU21D;51061;45.258;38.112;2022-10-10T09:24:09;29.34;54.61
64650;HTU21D;51061;45.258;38.112;2022-10-10T09:26:45;28.83;54.39
64650;HTU21D;51061;45.258;38.112;2022-10-10T09:32:08;28.30;53.91
64650;HTU21D;51061;45.258;38.112;2022-10-10T09:34:48;28.45;54.94
64650;HTU21D;51061;45.258;38.112;2022-10-10T09:37:21;28.38;53.03
64650;HTU21D;51061;45.258;38.112;2022-10-10T09:42:29;28.43;53.01
64650;HTU21D;51061;45.258;38.112;2022-10-10T09:44:56;29.24;50.44
64650;HTU21D;51061;45.258;38.112;2022-10-10T09:47:22;30.04;48.67
64650;HTU21D;51061;45.258;38.112;2022-10-10T09:49:49;30.74;46.63
64650;HTU21D;51061;45.258;38.112;2022-10-10T09:54:47;31.81;44.52
64650;HTU21D;51061;45.258;38.112;2022-10-10T09:57:15;32.79;42.45
64650;HTU21D;51061;45.258;38.112;2022-10-10T09:59:43;33.49;40.99
64650;HTU21D;51061;45.258;38.112;2022-10-10T10:02:22;34.17;41.10
64650;HTU21D;51061;45.258;38.112;2022-10-10T10:04:49;34.51;38.73
64650;HTU21D;51061;45.258;38.112;2022-10-10T10:07:18;34.01;38.79
64650;HTU21D;51061;45.258;38.112;2022-10-10T10:09:50;32.78;40.79
64650;HTU21D;51061;45.258;38.112;2022-10-10T10:12:38;32.90;41.54
64650;HTU21D;51061;45.258;38.112;2022-10-10T10:15:15;32.26;41.10
64650;HTU21D;51061;45.258;38.112;2022-10-10T10:17:42;32.40;39.97
64650;HTU21D;51061;45.258;38.112;2022-10-10T10:20:36;32.24;41.03
64650;HTU21D;51061;45.258;38.112;2022-10-10T10:23:02;31.75;40.43
64650;HTU21D;51061;45.258;38.112;2022-10-10T10:25:36;32.22;39.67
64650;HTU21D;51061;45.258;38.112;2022-10-10T10:28:18;31.88;39.00
64650;HTU21D;51061;45.258;38.112;2022-10-10T10:30:45;31.57;39.17
64650;HTU21D;51061;45.258;38.112;2022-10-10T10:38:52;30.59;40.78
64650;HTU21D;51061;45.258;38.112;2022-10-10T10:41:30;30.85;39.54
64650;HTU21D;51061;45.258;38.112;2022-10-10T10:44:23;30.59;41.10
64650;HTU21D;51061;45.258;38.112;2022-10-10T10:47:46;30.68;40.42
64650;HTU21D;51061;45.258;38.112;2022-10-10T10:55:48;29.72;40.83
64650;HTU21D;51061;45.258;38.112;2022-10-10T11:04:02;28.90;43.29
64650;HTU21D;51061;45.258;38.112;2022-10-10T11:09:15;28.27;42.79
64650;HTU21D;51061;45.258;38.112;2022-10-10T11:12:09;28.68;41.85
64650;HTU21D;51061;45.258;38.112;2022-10-10T11:14:51;28.44;41.74
64650;HTU21D;51061;45.258;38.112;2022-10-10T11:22:25;28.93;40.75
64650;HTU21D;51061;45.258;38.112;2022-10-10T11:25:04;28.64;40.66
64650;HTU21D;51061;45.258;38.112;2022-10-10T11:27:37;27.86;41.34
64650;HTU21D;51061;45.258;38.112;2022-10-10T11:37:44;26.71;43.54
64650;HTU21D;51061;45.258;38.112;2022-10-10T11:40:45;28.15;42.26
64650;HTU21D;51061;45.258;38.112;2022-10-10T11:43:30;29.27;40.24
64650;HTU21D;51061;45.258;38.112;2022-10-10T11:46:13;30.02;39.14
64650;HTU21D;51061;45.258;38.112;2022-10-10T11:57:15;29.44;38.76
64650;HTU21D;51061;45.258;38.112;2022-10-10T11:59:47;28.70;39.54
64650;HTU21D;51061;45.258;38.112;2022-10-10T12:02:22;27.84;40.74
64650;HTU21D;51061;45.258;38.112;2022-10-10T12:04:51;27.09;41.36
64650;HTU21D;51061;45.258;38.112;2022-10-10T12:09:48;26.13;43.14
64650;HTU21D;51061;45.258;38.112;2022-10-10T12:12:26;25.71;44.00
64650;HTU21D;51061;45.258;38.112;2022-10-10T12:14:55;25.28;44.44
64650;HTU21D;51061;45.258;38.112;2022-10-10T12:17:33;24.86;45.25
64650;HTU21D;51061;45.258;38.112;2022-10-10T12:20:30;24.54;45.63
64650;HTU21D;51061;45.258;38.112;2022-10-10T12:35:50;23.31;47.94
64650;HTU21D;51061;45.258;38.112;2022-10-10T12:38:19;23.16;48.44
64650;HTU21D;51061;45.258;38.112;2022-10-10T12:43:42;22.96;49.05
64650;HTU21D;51061;45.258;38.112;2022-10-10T12:46:25;22.77;49.63
64650;HTU21D;51061;45.258;38.112;2022-10-10T12:49:16;22.70;49.90
64650;HTU21D;51061;45.258;38.112;2022-10-10T12:51:45;22.51;50.14
64650;HTU21D;51061;45.258;38.112;2022-10-10T12:54:26;22.36;50.53
64650;HTU21D;51061;45.258;38.112;2022-10-10T12:57:06;22.25;50.72
64650;HTU21D;51061;45.258;38.112;2022-10-10T12:59:35;22.20;50.90
64650;HTU21D;51061;45.258;38.112;2022-10-10T13:02:09;22.14;51.00
64650;HTU21D;51061;45.258;38.112;2022-10-10T13:04:41;21.98;51.28
64650;HTU21D;51061;45.258;38.112;2022-10-10T13:07:14;21.82;51.78
64650;HTU21D;51061;45.258;38.112;2022-10-10T13:09:43;21.66;52.24
64650;HTU21D;51061;45.258;38.112;2022-10-10T13:12:29;21.50;52.41
64650;HTU21D;51061;45.258;38.112;2022-10-10T13:14:57;21.38;52.46
64650;HTU21D;51061;45.258;38.112;2022-10-10T13:17:32;21.27;52.69
64650;HTU21D;51061;45.258;38.112;2022-10-10T13:20:03;21.20;53.07
64650;HTU21D;51061;45.258;38.112;2022-10-10T13:22:31;21.17;53.23
64650;HTU21D;51061;45.258;38.112;2022-10-10T13:24:59;21.08;53.34
64650;HTU21D;51061;45.258;38.112;2022-10-10T13:27:27;20.99;53.33
64650;HTU21D;51061;45.258;38.112;2022-10-10T13:29:55;20.91;53.42
64650;HTU21D;51061;45.258;38.112;2022-10-10T13:32:27;20.86;53.51
64650;HTU21D;51061;45.258;38.112;2022-10-10T13:35:06;20.79;53.71
64650;HTU21D;51061;45.258;38.112;2022-10-10T13:37:39;20.77;53.93
64650;HTU21D;51061;45.258;38.112;2022-10-10T13:40:12;20.70;54.10
64650;HTU21D;51061;45.258;38.112;2022-10-10T13:42:40;20.63;54.48
64650;HTU21D;51061;45.258;38.112;2022-10-10T13:50:27;20.56;54.75
64650;HTU21D;51061;45.258;38.112;2022-10-10T14:03:57;20.20;55.87
64650;HTU21D;51061;45.258;38.112;2022-10-10T14:06:26;20.17;56.37
64650;HTU21D;51061;45.258;38.112;2022-10-10T14:08:54;20.13;56.38
64650;HTU21D;51061;45.258;38.112;2022-10-10T14:11:25;20.04;56.32
64650;HTU21D;51061;45.258;38.112;2022-10-10T14:14:07;19.89;56.62
64650;HTU21D;51061;45.258;38.112;2022-10-10T14:16:39;19.77;56.95
64650;HTU21D;51061;45.258;38.112;2022-10-10T14:19:16;19.63;57.03
64650;HTU21D;51061;45.258;38.112;2022-10-10T14:21:43;19.56;57.39
64650;HTU21D;51061;45.258;38.112;2022-10-10T14:24:09;19.31;57.64
64650;HTU21D;51061;45.258;38.112;2022-10-10T14:26:35;19.33;57.79
64650;HTU21D;51061;45.258;38.112;2022-10-10T14:29:01;19.27;57.87
64650;HTU21D;51061;45.258;38.112;2022-10-10T14:31:27;19.21;57.98
64650;HTU21D;51061;45.258;38.112;2022-10-10T14:33:53;19.00;58.16
64650;HTU21D;51061;45.258;38.112;2022-10-10T14:36:20;18.99;58.21
64650;HTU21D;51061;45.258;38.112;2022-10-10T14:38:46;18.93;58.32
64650;HTU21D;51061;45.258;38.112;2022-10-10T14:41:11;18.71;58.51
64650;HTU21D;51061;45.258;38.112;2022-10-10T14:43:38;18.71;58.60
64650;HTU21D;51061;45.258;38.112;2022-10-10T14:46:04;18.66;58.84
64650;HTU21D;51061;45.258;38.112;2022-10-10T14:48:31;18.57;59.03
64650;HTU21D;51061;45.258;38.112;2022-10-10T14:50:56;18.33;59.25
64650;HTU21D;51061;45.258;38.112;2022-10-10T14:53:22;18.35;59.41
64650;HTU21D;51061;45.258;38.112;2022-10-10T14:55:48;18.10;59.52
64650;HTU21D;51061;45.258;38.112;2022-10-10T14:58:16;18.11;59.72
64650;HTU21D;51061;45.258;38.112;2022-10-10T15:00:43;18.06;59.95
64650;HTU21D;51061;45.258;38.112;2022-10-10T15:03:10;18.00;60.12
64650;HTU21D;51061;45.258;38.112;2022-10-10T15:05:35;17.79;60.18
64650;HTU21D;51061;45.258;38.112;2022-10-10T15:08:02;17.82;60.34
64650;HTU21D;51061;45.258;38.112;2022-10-10T15:10:28;17.74;60.63
64650;HTU21D;51061;45.258;38.112;2022-10-10T15:12:54;17.66;60.81
64650;HTU21D;51061;45.258;38.112;2022-10-10T15:15:20;17.60;61.02
64650;HTU21D;51061;45.258;38.112;2022-10-10T15:17:46;17.38;60.97
64650;HTU21D;51061;45.258;38.112;2022-10-10T15:20:13;17.39;61.34
64650;HTU21D;51061;45.258;38.112;2022-10-10T15:22:39;17.36;61.56
64650;HTU21D;51061;45.258;38.112;2022-10-10T15:25:06;17.31;61.66
64650;HTU21D;51061;45.258;38.112;2022-10-10T15:27:33;17.26;61.87
64650;HTU21D;51061;45.258;38.112;2022-10-10T15:30:00;17.18;62.10
64650;HTU21D;51061;45.258;38.112;2022-10-10T15:32:27;17.10;62.29
64650;HTU21D;51061;45.258;38.112;2022-10-10T15:34:53;16.89;62.30
64650;HTU21D;51061;45.258;38.112;2022-10-10T15:37:19;16.90;62.53
64650;HTU21D;51061;45.258;38.112;2022-10-10T15:39:45;16.82;62.76
64650;HTU21D;51061;45.258;38.112;2022-10-10T15:42:13;16.77;63.02
64650;HTU21D;51061;45.258;38.112;2022-10-10T15:44:46;16.69;63.02
64650;HTU21D;51061;45.258;38.112;2022-10-10T15:47:14;16.61;63.34
64650;HTU21D;51061;45.258;38.112;2022-10-10T15:49:40;16.56;63.64
64650;HTU21D;51061;45.258;38.112;2022-10-10T15:52:07;16.50;63.69
64650;HTU21D;51061;45.258;38.112;2022-10-10T15:54:34;16.45;63.90
64650;HTU21D;51061;45.258;38.112;2022-10-10T15:57:00;16.44;64.09
64650;HTU21D;51061;45.258;38.112;2022-10-10T15:59:26;16.40;64.09
64650;HTU21D;51061;45.258;38.112;2022-10-10T16:01:52;16.37;64.18
64650;HTU21D;51061;45.258;38.112;2022-10-10T16:04:20;16.33;64.36
64650;HTU21D;51061;45.258;38.112;2022-10-10T16:06:48;16.31;64.34
64650;HTU21D;51061;45.258;38.112;2022-10-10T16:09:14;16.25;64.45
64650;HTU21D;51061;45.258;38.112;2022-10-10T16:11:40;16.04;64.53
64650;HTU21D;51061;45.258;38.112;2022-10-10T16:14:06;16.08;64.95
64650;HTU21D;51061;45.258;38.112;2022-10-10T16:16:32;15.88;64.85
64650;HTU21D;51061;45.258;38.112;2022-10-10T16:18:58;15.93;65.14
64650;HTU21D;51061;45.258;38.112;2022-10-10T16:21:24;15.76;65.06
64650;HTU21D;51061;45.258;38.112;2022-10-10T16:23:51;15.82;65.22
64650;HTU21D;51061;45.258;38.112;2022-10-10T16:26:23;15.81;65.24
64650;HTU21D;51061;45.258;38.112;2022-10-10T16:28:51;15.77;65.33
64650;HTU21D;51061;45.258;38.112;2022-10-10T16:31:19;15.75;65.47
64650;HTU21D;51061;45.258;38.112;2022-10-10T16:33:48;15.72;65.47
64650;HTU21D;51061;45.258;38.112;2022-10-10T16:36:19;15.65;65.43
64650;HTU21D;51061;45.258;38.112;2022-10-10T16:38:46;15.59;65.73
64650;HTU21D;51061;45.258;38.112;2022-10-10T16:41:14;15.51;65.82
64650;HTU21D;51061;45.258;38.112;2022-10-10T16:43:47;15.40;66.07
64650;HTU21D;51061;45.258;38.112;2022-10-10T16:46:16;15.32;66.28
64650;HTU21D;51061;45.258;38.112;2022-10-10T16:48:43;15.26;66.49
64650;HTU21D;51061;45.258;38.112;2022-10-10T16:51:15;15.21;66.63
64650;HTU21D;51061;45.258;38.112;2022-10-10T16:53:42;15.13;66.95
64650;HTU21D;51061;45.258;38.112;2022-10-10T16:56:13;15.07;67.02
64650;HTU21D;51061;45.258;38.112;2022-10-10T16:58:40;14.99;67.29
64650;HTU21D;51061;45.258;38.112;2022-10-10T17:01:19;14.91;67.27
64650;HTU21D;51061;45.258;38.112;2022-10-10T17:03:49;14.84;67.71
64650;HTU21D;51061;45.258;38.112;2022-10-10T17:06:19;14.77;67.72
64650;HTU21D;51061;45.258;38.112;2022-10-10T17:08:47;14.69;68.01
64650;HTU21D;51061;45.258;38.112;2022-10-10T17:11:15;14.65;68.13
64650;HTU21D;51061;45.258;38.112;2022-10-10T17:13:43;14.57;68.28
64650;HTU21D;51061;45.258;38.112;2022-10-10T17:16:12;14.51;68.42
64650;HTU21D;51061;45.258;38.112;2022-10-10T17:18:38;14.45;68.56
64650;HTU21D;51061;45.258;38.112;2022-10-10T17:21:12;14.41;68.49
64650;HTU21D;51061;45.258;38.112;2022-10-10T17:23:40;14.37;68.74